Gilboa, New York
Current Conditions -  °F | °C
As of 10:51 PM on Friday 28 Nov 2014 (Local Time) from KALB Reporting Station
Broken Clouds Broken Clouds  
Wind Chill: 23°   Ceiling: 4600
Heat Index: 23°   Visibility: 10mi
Dew Point: 12°   Wind: 0mph
Humidity: 63%   Direction: NA
Pressure: 30.25"   Gusts: NA
Location:  42.4°N, 74.45°W
Report Text: KALB 290351Z 00000KT 10SM BKN046 M05/M11 A3025 RMK AO2 SLP248 T10501111
Loading
Personal Weather Stations






























Interactive Weather Map New forecast layout! Learn more

10-Day Weather Forecast

Advertisements
Track Severe Weather on mobile